createdAt,value
2022-11-30T00:01:31.877Z,7.00
2022-11-30T00:04:00.245Z,7.00
2022-11-30T00:06:28.185Z,7.00
2022-11-30T00:08:56.587Z,7.70
2022-11-30T00:11:27.363Z,7.00
2022-11-30T00:13:55.649Z,7.00
2022-11-30T00:16:23.755Z,7.30
2022-11-30T00:18:52.244Z,7.00
2022-11-30T00:21:20.942Z,7.10
2022-11-30T00:23:49.598Z,7.10
2022-11-30T00:26:22.473Z,7.10
2022-11-30T00:28:51.897Z,7.10
2022-11-30T00:31:20.158Z,7.10
2022-11-30T00:33:48.400Z,7.10
2022-11-30T00:36:18.116Z,7.10
2022-11-30T00:38:46.668Z,7.20
2022-11-30T00:41:15.380Z,7.10
2022-11-30T00:43:43.621Z,7.10
2022-11-30T00:46:13.203Z,7.10
2022-11-30T00:48:42.018Z,7.10
2022-11-30T00:51:11.431Z,7.10
2022-11-30T00:53:39.629Z,7.10
2022-11-30T00:56:08.156Z,7.10
2022-11-30T00:58:36.050Z,7.10
2022-11-30T01:01:04.616Z,7.10
2022-11-30T01:03:34.645Z,7.10
2022-11-30T01:06:03.860Z,7.00
2022-11-30T01:08:31.992Z,7.10
2022-11-30T01:11:06.901Z,7.10
2022-11-30T01:13:34.827Z,7.10
2022-11-30T01:16:02.752Z,7.10
2022-11-30T01:18:30.713Z,7.00
2022-11-30T01:20:59.960Z,7.00
2022-11-30T01:23:27.888Z,7.00
2022-11-30T01:25:56.394Z,7.00
2022-11-30T01:28:24.370Z,7.00
2022-11-30T01:30:59.416Z,7.00
2022-11-30T01:33:27.602Z,7.10
2022-11-30T01:36:05.992Z,7.10
2022-11-30T01:38:35.029Z,8.20
2022-11-30T01:41:03.802Z,7.10
2022-11-30T01:43:43.204Z,7.60
2022-11-30T01:46:31.539Z,7.10
2022-11-30T01:49:04.692Z,7.10
2022-11-30T01:51:39.405Z,7.10
2022-11-30T01:54:09.864Z,7.20
2022-11-30T01:56:42.595Z,7.10
2022-11-30T01:59:11.188Z,7.10
2022-11-30T02:01:39.146Z,7.10
2022-11-30T02:04:12.468Z,8.00
2022-11-30T02:06:41.789Z,7.10
2022-11-30T02:09:10.086Z,8.10
2022-11-30T02:11:38.134Z,7.70
2022-11-30T02:14:32.544Z,7.70
2022-11-30T02:17:10.394Z,7.10
2022-11-30T02:20:08.731Z,7.10
2022-11-30T02:22:51.505Z,7.20
2022-11-30T02:25:27.118Z,7.60
2022-11-30T02:28:19.713Z,7.20
2022-11-30T02:30:53.159Z,7.10
2022-11-30T02:33:26.279Z,7.20
2022-11-30T02:35:56.397Z,7.10
2022-11-30T02:38:26.323Z,7.10
2022-11-30T02:40:54.246Z,7.70
2022-11-30T02:43:25.120Z,7.10
2022-11-30T02:46:00.672Z,7.10
2022-11-30T02:48:34.037Z,8.20
2022-11-30T02:51:05.714Z,7.00
2022-11-30T02:53:33.666Z,7.00
2022-11-30T02:56:01.828Z,7.60
2022-11-30T02:58:29.748Z,6.90
2022-11-30T03:00:59.111Z,6.90
2022-11-30T03:03:27.052Z,6.90
2022-11-30T03:05:54.977Z,6.80
2022-11-30T03:08:22.933Z,6.80
2022-11-30T03:10:50.854Z,6.80
2022-11-30T03:13:18.776Z,6.80
2022-11-30T03:15:46.674Z,6.70
2022-11-30T03:18:16.002Z,6.70
2022-11-30T03:20:44.366Z,6.70
2022-11-30T03:23:12.477Z,7.60
2022-11-30T03:25:40.410Z,6.60
2022-11-30T03:28:08.316Z,6.60
2022-11-30T03:30:36.204Z,7.10
2022-11-30T03:33:04.130Z,6.50
2022-11-30T03:35:33.382Z,6.50
2022-11-30T03:38:01.313Z,6.50
2022-11-30T03:40:29.206Z,6.50
2022-11-30T03:42:57.122Z,6.40
2022-11-30T03:45:25.037Z,6.40
2022-11-30T03:47:52.949Z,6.40
2022-11-30T03:50:20.878Z,6.40
2022-11-30T03:52:50.358Z,6.40
2022-11-30T03:55:18.474Z,6.30
2022-11-30T03:57:46.457Z,6.30
2022-11-30T04:00:15.229Z,6.30
2022-11-30T04:02:44.926Z,6.30
2022-11-30T04:05:13.508Z,6.30
2022-11-30T04:07:41.544Z,6.30
2022-11-30T04:10:12.324Z,6.30
2022-11-30T04:12:40.231Z,6.30
2022-11-30T04:15:09.321Z,6.30
2022-11-30T04:17:37.205Z,6.30
2022-11-30T04:20:06.045Z,6.20
2022-11-30T04:22:34.358Z,6.30
2022-11-30T04:25:02.275Z,6.20
2022-11-30T04:27:31.540Z,6.30
2022-11-30T04:29:59.442Z,6.20
2022-11-30T04:32:27.447Z,6.20
2022-11-30T04:34:55.366Z,6.30
2022-11-30T04:37:23.273Z,6.20
2022-11-30T04:39:51.245Z,6.20
2022-11-30T04:42:19.112Z,6.20
2022-11-30T04:44:48.594Z,6.20
2022-11-30T04:47:16.918Z,6.10
2022-11-30T04:49:44.846Z,6.70
2022-11-30T04:52:12.765Z,6.10
2022-11-30T04:54:40.640Z,6.10
2022-11-30T04:57:08.576Z,6.00
2022-11-30T04:59:36.489Z,6.00
2022-11-30T05:02:05.797Z,6.00
2022-11-30T05:04:33.832Z,6.00
2022-11-30T05:07:01.926Z,6.00
2022-11-30T05:09:29.848Z,5.90
2022-11-30T05:11:57.726Z,5.90
2022-11-30T05:14:25.624Z,5.90
2022-11-30T05:16:53.589Z,6.00
2022-11-30T05:19:22.853Z,6.40
2022-11-30T05:21:50.806Z,5.80
2022-11-30T05:24:18.751Z,5.80
2022-11-30T05:26:46.665Z,5.80
2022-11-30T05:29:14.570Z,5.80
2022-11-30T05:31:42.487Z,5.80
2022-11-30T05:34:10.434Z,5.70
2022-11-30T05:36:39.725Z,5.80
2022-11-30T05:39:07.645Z,5.70
2022-11-30T05:41:35.718Z,6.40
2022-11-30T05:44:03.670Z,5.70
2022-11-30T05:46:31.627Z,5.70
2022-11-30T05:48:59.533Z,5.70
2022-11-30T05:51:27.685Z,5.70
2022-11-30T05:53:56.964Z,5.70
2022-11-30T05:56:24.851Z,5.70
2022-11-30T05:58:52.927Z,5.70
2022-11-30T06:01:22.758Z,5.70
2022-11-30T06:03:50.944Z,5.70
2022-11-30T06:06:19.957Z,5.70
2022-11-30T06:08:49.602Z,5.70
2022-11-30T06:11:18.968Z,5.70
2022-11-30T06:13:46.872Z,5.60
2022-11-30T06:16:14.850Z,5.60
2022-11-30T06:18:42.852Z,5.60
2022-11-30T06:21:13.373Z,5.70
2022-11-30T06:23:41.292Z,5.60
2022-11-30T06:26:11.189Z,6.60
2022-11-30T06:28:45.329Z,5.60
2022-11-30T06:31:15.820Z,5.60
2022-11-30T06:33:44.085Z,5.70
2022-11-30T06:36:12.006Z,5.60
2022-11-30T06:38:39.887Z,5.60
2022-11-30T06:41:09.467Z,5.60
2022-11-30T06:43:38.541Z,5.60
2022-11-30T06:46:08.547Z,6.40
2022-11-30T06:48:36.682Z,5.60
2022-11-30T06:51:07.383Z,5.60
2022-11-30T06:53:35.503Z,5.60
2022-11-30T06:56:10.023Z,5.60
2022-11-30T06:58:38.985Z,5.60
2022-11-30T07:01:09.074Z,5.60
2022-11-30T07:03:37.403Z,5.70
2022-11-30T07:06:09.132Z,5.70
2022-11-30T07:08:37.726Z,5.60
2022-11-30T07:11:06.399Z,5.60
2022-11-30T07:13:34.698Z,5.70
2022-11-30T07:16:05.621Z,5.70
2022-11-30T07:18:35.660Z,5.70
2022-11-30T07:21:05.387Z,5.70
2022-11-30T07:23:56.236Z,5.70
2022-11-30T07:26:25.258Z,5.70
2022-11-30T07:28:58.032Z,5.70
2022-11-30T07:31:27.880Z,5.80
2022-11-30T07:33:58.560Z,5.80
2022-11-30T07:36:29.641Z,5.70
2022-11-30T07:38:57.539Z,5.80
2022-11-30T07:41:25.834Z,5.80
2022-11-30T07:43:53.887Z,5.80
2022-11-30T07:46:23.910Z,5.80
2022-11-30T07:48:52.425Z,5.90
2022-11-30T07:51:23.313Z,5.90
2022-11-30T07:53:51.501Z,6.20
2022-11-30T07:56:20.880Z,6.40
2022-11-30T07:58:49.339Z,5.90
2022-11-30T08:01:19.449Z,5.90
2022-11-30T08:03:47.446Z,5.90
2022-11-30T08:06:17.072Z,6.00
2022-11-30T08:08:47.054Z,7.10
2022-11-30T08:11:17.025Z,6.00
2022-11-30T08:13:45.445Z,6.00
2022-11-30T08:16:14.823Z,6.10
2022-11-30T08:18:43.362Z,6.10
2022-11-30T08:21:13.402Z,6.10
2022-11-30T08:23:42.905Z,6.20
2022-11-30T08:26:14.212Z,6.20
2022-11-30T08:28:43.166Z,6.10
2022-11-30T08:31:14.975Z,6.20
2022-11-30T08:33:43.469Z,6.20
2022-11-30T08:36:13.546Z,6.20
2022-11-30T08:38:42.823Z,6.30
2022-11-30T08:41:13.737Z,6.50
2022-11-30T08:43:41.805Z,6.40
2022-11-30T08:46:42.623Z,6.40
2022-11-30T08:49:20.491Z,6.30
2022-11-30T08:52:16.024Z,6.40
2022-11-30T08:54:35.919Z,6.50
2022-11-30T08:57:05.182Z,7.20
2022-11-30T08:59:33.474Z,6.60
2022-11-30T09:02:01.404Z,6.60
2022-11-30T09:04:29.299Z,6.60
2022-11-30T09:06:59.313Z,6.70
2022-11-30T09:09:27.973Z,7.50
2022-11-30T09:11:55.990Z,6.70
2022-11-30T09:14:25.319Z,6.80
2022-11-30T09:16:55.630Z,6.90
2022-11-30T09:19:23.591Z,6.90
2022-11-30T09:21:52.541Z,6.90
2022-11-30T09:24:21.065Z,7.00
2022-11-30T09:26:49.057Z,7.00
2022-11-30T09:29:16.969Z,7.90
2022-11-30T09:31:46.281Z,7.10
2022-11-30T09:34:14.197Z,7.20
2022-11-30T09:36:42.263Z,7.20
2022-11-30T09:39:12.761Z,7.20
2022-11-30T09:42:03.956Z,7.50
2022-11-30T09:44:39.969Z,7.30
2022-11-30T09:47:27.252Z,7.30
2022-11-30T09:49:57.365Z,8.30
2022-11-30T09:52:32.975Z,8.40
2022-11-30T09:55:06.554Z,7.50
2022-11-30T09:57:42.493Z,7.60
2022-11-30T10:00:15.486Z,8.00
2022-11-30T10:02:45.500Z,7.50
2022-11-30T10:05:14.781Z,7.50
2022-11-30T10:07:56.309Z,7.50
2022-11-30T10:10:35.192Z,7.60
2022-11-30T10:13:17.448Z,7.70
2022-11-30T10:15:55.268Z,7.70
2022-11-30T10:18:35.878Z,8.60
2022-11-30T10:21:15.655Z,7.80
2022-11-30T10:23:59.944Z,7.90
2022-11-30T10:26:33.483Z,7.90
2022-11-30T10:29:09.300Z,7.90
2022-11-30T10:31:39.363Z,8.40
2022-11-30T10:34:20.368Z,8.40
2022-11-30T10:36:53.272Z,8.10
2022-11-30T10:39:29.617Z,8.20
2022-11-30T10:42:05.701Z,8.20
2022-11-30T10:44:40.338Z,8.20
2022-11-30T10:47:15.189Z,8.30
2022-11-30T10:49:50.224Z,8.40
2022-11-30T10:52:23.047Z,8.40
2022-11-30T10:54:57.995Z,8.40
2022-11-30T10:57:32.288Z,8.90
2022-11-30T11:00:01.865Z,8.50
2022-11-30T11:02:39.515Z,8.60
2022-11-30T11:05:17.063Z,8.60
2022-11-30T11:07:53.654Z,8.90
2022-11-30T11:10:28.441Z,8.70
2022-11-30T11:12:57.301Z,8.70
2022-11-30T11:15:26.705Z,8.80
2022-11-30T11:18:12.596Z,8.90
2022-11-30T11:20:43.339Z,9.00
2022-11-30T11:23:22.920Z,8.90
2022-11-30T11:25:57.568Z,8.90
2022-11-30T11:28:26.301Z,9.00
2022-11-30T11:30:56.144Z,9.00
2022-11-30T11:33:25.899Z,9.10
2022-11-30T11:35:56.504Z,9.70
2022-11-30T11:38:28.228Z,9.80
2022-11-30T11:40:59.429Z,9.00
2022-11-30T11:43:29.939Z,9.10
2022-11-30T11:46:01.021Z,9.10
2022-11-30T11:48:36.101Z,9.10
2022-11-30T11:51:08.243Z,9.20
2022-11-30T11:53:46.314Z,9.30
2022-11-30T11:56:24.773Z,9.30
2022-11-30T11:58:57.591Z,9.40
2022-11-30T12:01:41.512Z,9.40
2022-11-30T12:04:32.950Z,9.50
2022-11-30T12:07:05.725Z,9.50
2022-11-30T12:09:40.596Z,9.50
2022-11-30T12:12:13.547Z,10.30
2022-11-30T12:14:41.577Z,9.60
2022-11-30T12:17:27.305Z,9.70
2022-11-30T12:20:00.970Z,9.70
2022-11-30T12:23:01.881Z,9.80
2022-11-30T12:25:34.876Z,9.80
2022-11-30T12:28:17.436Z,9.90
2022-11-30T12:30:47.751Z,9.90
2022-11-30T12:33:25.408Z,9.90
2022-11-30T12:36:02.321Z,9.90
2022-11-30T12:38:48.836Z,10.00
2022-11-30T12:41:31.660Z,10.00
2022-11-30T12:44:15.777Z,10.80
2022-11-30T12:46:54.377Z,10.00
2022-11-30T12:49:45.374Z,9.90
2022-11-30T12:52:28.669Z,10.00
2022-11-30T12:55:04.056Z,10.10
2022-11-30T12:57:37.224Z,10.10
2022-11-30T13:00:09.956Z,10.10
2022-11-30T13:03:23.738Z,10.10
2022-11-30T13:05:57.845Z,10.20
2022-11-30T13:08:30.960Z,10.20
2022-11-30T13:11:03.962Z,10.10
2022-11-30T13:13:35.801Z,10.20
2022-11-30T13:16:08.971Z,10.20
2022-11-30T13:18:37.822Z,10.20
2022-11-30T13:21:11.224Z,10.80
2022-11-30T13:23:45.304Z,10.20
2022-11-30T13:26:24.910Z,10.30
2022-11-30T13:29:05.224Z,10.20
2022-11-30T13:31:39.074Z,10.30
2022-11-30T13:34:24.827Z,10.20
2022-11-30T13:37:00.948Z,10.20
2022-11-30T13:39:29.988Z,10.20
2022-11-30T13:42:34.291Z,10.30
2022-11-30T13:45:24.747Z,10.30
2022-11-30T13:47:54.794Z,10.20
2022-11-30T13:50:28.594Z,10.60
2022-11-30T13:53:21.652Z,10.40
2022-11-30T13:56:05.454Z,10.40
2022-11-30T13:58:35.698Z,10.20
2022-11-30T14:01:23.322Z,10.20
2022-11-30T14:04:23.498Z,10.20
2022-11-30T14:06:53.102Z,10.30
2022-11-30T14:09:59.723Z,10.10
2022-11-30T14:12:45.580Z,10.10
2022-11-30T14:15:55.293Z,10.00
2022-11-30T14:18:29.209Z,10.00
2022-11-30T14:21:01.856Z,10.90
2022-11-30T14:23:33.109Z,10.00
2022-11-30T14:26:10.496Z,10.00
2022-11-30T14:28:44.558Z,10.00
2022-11-30T14:31:23.061Z,9.90
2022-11-30T14:33:55.116Z,9.90
2022-11-30T14:36:26.678Z,9.90
2022-11-30T14:38:54.676Z,9.90
2022-11-30T14:41:24.918Z,9.80
2022-11-30T14:44:04.117Z,9.90
2022-11-30T14:46:35.805Z,9.80
2022-11-30T14:49:17.965Z,9.80
2022-11-30T14:51:48.174Z,9.80
2022-11-30T14:54:27.884Z,9.80
2022-11-30T14:57:03.818Z,9.70
2022-11-30T14:59:42.941Z,10.00
2022-11-30T15:02:21.067Z,9.60
2022-11-30T15:04:50.639Z,9.60
2022-11-30T15:07:19.025Z,9.70
2022-11-30T15:09:50.934Z,9.60
2022-11-30T15:12:21.769Z,10.00
2022-11-30T15:15:15.970Z,9.50
2022-11-30T15:17:48.389Z,9.50
2022-11-30T15:20:39.993Z,9.40
2022-11-30T15:23:13.825Z,9.40
2022-11-30T15:25:44.772Z,9.60
2022-11-30T15:28:16.084Z,9.30
2022-11-30T15:30:45.855Z,9.30
2022-11-30T15:33:19.933Z,9.60
2022-11-30T15:36:14.135Z,9.30
2022-11-30T15:38:38.391Z,9.20
2022-11-30T15:41:09.462Z,9.20
2022-11-30T15:43:40.578Z,9.20
2022-11-30T15:46:23.996Z,9.10
2022-11-30T15:49:06.313Z,9.10
2022-11-30T15:51:39.549Z,9.10
2022-11-30T15:54:07.477Z,9.10
2022-11-30T15:56:36.342Z,9.10
2022-11-30T15:59:07.320Z,9.00
2022-11-30T16:02:01.749Z,9.30
2022-11-30T16:05:14.114Z,8.90
2022-11-30T16:07:51.213Z,8.90
2022-11-30T16:10:22.391Z,9.40
2022-11-30T16:12:51.804Z,8.80
2022-11-30T16:15:21.944Z,8.80
2022-11-30T16:17:49.945Z,8.80
2022-11-30T16:20:20.939Z,8.80
2022-11-30T16:22:49.882Z,9.70
2022-11-30T16:25:20.396Z,8.70
2022-11-30T16:27:48.853Z,8.70
2022-11-30T16:30:19.305Z,8.70
2022-11-30T16:32:47.348Z,8.70
2022-11-30T16:35:23.001Z,8.70
2022-11-30T16:37:51.318Z,8.60
2022-11-30T16:40:20.642Z,8.60
2022-11-30T16:42:51.148Z,8.60
2022-11-30T16:45:21.370Z,8.50
2022-11-30T16:47:49.787Z,8.50
2022-11-30T16:50:19.986Z,8.50
2022-11-30T16:52:48.185Z,8.50
2022-11-30T16:55:18.179Z,8.50
2022-11-30T16:57:46.885Z,8.50
2022-11-30T17:00:17.428Z,8.50
2022-11-30T17:02:50.138Z,8.40
2022-11-30T17:05:19.573Z,8.40
2022-11-30T17:07:47.569Z,8.30
2022-11-30T17:10:16.930Z,8.30
2022-11-30T17:12:44.866Z,8.20
2022-11-30T17:15:17.296Z,8.20
2022-11-30T17:17:45.275Z,8.20
2022-11-30T17:20:14.758Z,8.20
2022-11-30T17:22:45.452Z,8.00
2022-11-30T17:25:16.268Z,8.40
2022-11-30T17:27:44.425Z,8.10
2022-11-30T17:30:13.833Z,8.20
2022-11-30T17:32:41.817Z,8.00
2022-11-30T17:35:10.526Z,8.00
2022-11-30T17:37:38.477Z,7.90
2022-11-30T17:40:11.485Z,8.30
2022-11-30T17:42:39.472Z,7.80
2022-11-30T17:45:08.423Z,8.10
2022-11-30T17:47:36.598Z,7.70
2022-11-30T17:50:05.277Z,7.90
2022-11-30T17:52:33.213Z,7.50
2022-11-30T17:55:01.127Z,7.50
2022-11-30T17:57:30.608Z,7.40
2022-11-30T17:59:58.503Z,7.70
2022-11-30T18:02:26.479Z,8.30
2022-11-30T18:04:55.851Z,7.40
2022-11-30T18:07:23.888Z,7.20
2022-11-30T18:09:51.870Z,7.10
2022-11-30T18:12:19.761Z,7.10
2022-11-30T18:14:50.115Z,7.50
2022-11-30T18:17:18.240Z,7.90
2022-11-30T18:19:46.201Z,6.80
2022-11-30T18:22:14.153Z,6.80
2022-11-30T18:24:42.146Z,6.80
2022-11-30T18:27:10.055Z,7.00
2022-11-30T18:29:38.017Z,7.10
2022-11-30T18:32:08.059Z,6.60
2022-11-30T18:34:35.994Z,6.60
2022-11-30T18:37:03.914Z,6.50
2022-11-30T18:39:31.902Z,6.50
2022-11-30T18:41:59.773Z,6.50
2022-11-30T18:44:27.677Z,6.30
2022-11-30T18:46:55.647Z,6.30
2022-11-30T18:49:24.990Z,6.90
2022-11-30T18:51:52.985Z,6.20
2022-11-30T18:54:20.968Z,6.10
2022-11-30T18:56:48.970Z,6.10
2022-11-30T18:59:18.045Z,6.00
2022-11-30T19:01:46.551Z,6.00
2022-11-30T19:04:14.951Z,6.00
2022-11-30T19:06:47.088Z,5.90
2022-11-30T19:09:20.045Z,5.90
2022-11-30T19:11:48.268Z,5.80
2022-11-30T19:14:17.678Z,5.70
2022-11-30T19:16:46.501Z,5.70
2022-11-30T19:19:15.429Z,5.70
2022-11-30T19:21:47.903Z,5.90
2022-11-30T19:24:16.890Z,5.60
2022-11-30T19:26:44.972Z,5.50
2022-11-30T19:29:13.413Z,5.50
2022-11-30T19:31:41.469Z,5.50
2022-11-30T19:34:13.321Z,5.40
2022-11-30T19:36:41.722Z,5.40
2022-11-30T19:39:12.067Z,5.40
2022-11-30T19:41:40.089Z,5.90
2022-11-30T19:44:08.152Z,5.20
2022-11-30T19:46:36.286Z,5.40
2022-11-30T19:49:04.982Z,5.20
2022-11-30T19:51:33.011Z,5.70
2022-11-30T19:54:01.310Z,5.10
2022-11-30T19:56:34.206Z,5.10
2022-11-30T19:59:05.550Z,5.50
2022-11-30T20:01:34.931Z,5.00
2022-11-30T20:04:03.450Z,5.00
2022-11-30T20:06:33.593Z,4.90
2022-11-30T20:09:01.935Z,4.90
2022-11-30T20:11:31.317Z,5.20
2022-11-30T20:14:00.375Z,4.80
2022-11-30T20:16:30.836Z,4.80
2022-11-30T20:19:01.185Z,4.80
2022-11-30T20:21:31.411Z,4.80
2022-11-30T20:24:01.269Z,4.70
2022-11-30T20:26:32.785Z,4.70
2022-11-30T20:29:02.269Z,4.70
2022-11-30T20:31:34.457Z,4.70
2022-11-30T20:34:02.735Z,4.60
2022-11-30T20:36:30.652Z,4.60
2022-11-30T20:38:59.918Z,4.60
2022-11-30T20:41:28.719Z,4.60
2022-11-30T20:43:58.462Z,4.80
2022-11-30T20:46:28.244Z,4.50
2022-11-30T20:48:57.068Z,5.50
2022-11-30T20:51:31.854Z,4.50
2022-11-30T20:54:01.164Z,4.40
2022-11-30T20:56:29.352Z,5.50
2022-11-30T20:59:05.047Z,4.40
2022-11-30T21:01:35.749Z,4.30
2022-11-30T21:04:03.912Z,4.30
2022-11-30T21:06:32.030Z,4.30
2022-11-30T21:09:03.302Z,4.30
2022-11-30T21:11:31.945Z,4.30
2022-11-30T21:14:01.289Z,4.20
2022-11-30T21:16:30.104Z,4.20
2022-11-30T21:19:02.719Z,4.10
2022-11-30T21:21:32.718Z,4.10
2022-11-30T21:24:01.905Z,4.10
2022-11-30T21:26:32.427Z,4.00
2022-11-30T21:29:04.491Z,4.00
2022-11-30T21:31:33.106Z,4.70
2022-11-30T21:34:01.413Z,4.00
2022-11-30T21:36:30.199Z,4.00
2022-11-30T21:39:05.156Z,3.90
2022-11-30T21:41:38.411Z,3.90
2022-11-30T21:44:08.829Z,3.90
2022-11-30T21:46:36.762Z,3.90
2022-11-30T21:49:05.154Z,3.90
2022-11-30T21:51:33.306Z,3.90
2022-11-30T21:54:02.413Z,3.90
2022-11-30T21:56:32.412Z,4.00
2022-11-30T21:59:01.125Z,3.90
2022-11-30T22:01:32.368Z,4.00
2022-11-30T22:04:02.104Z,4.00
2022-11-30T22:06:31.723Z,4.10
2022-11-30T22:09:03.335Z,4.00
2022-11-30T22:11:32.070Z,4.10
2022-11-30T22:14:00.175Z,4.70
2022-11-30T22:16:35.572Z,4.10
2022-11-30T22:19:05.369Z,4.10
2022-11-30T22:21:33.926Z,4.20
2022-11-30T22:24:03.188Z,4.20
2022-11-30T22:26:32.472Z,4.10
2022-11-30T22:29:02.293Z,4.20
2022-11-30T22:31:33.268Z,4.20
2022-11-30T22:34:01.723Z,4.10
2022-11-30T22:36:31.522Z,4.10
2022-11-30T22:39:01.297Z,4.10
2022-11-30T22:41:29.813Z,4.10
2022-11-30T22:43:58.929Z,4.80
2022-11-30T22:46:28.538Z,4.10
2022-11-30T22:49:00.312Z,4.10
2022-11-30T22:51:30.219Z,4.00
2022-11-30T22:53:59.545Z,4.00
2022-11-30T22:56:29.110Z,4.00
2022-11-30T22:59:00.026Z,3.90
2022-11-30T23:01:30.365Z,3.90
2022-11-30T23:04:04.928Z,3.90
2022-11-30T23:06:33.865Z,4.60
2022-11-30T23:09:02.050Z,3.80
2022-11-30T23:11:30.686Z,3.80
2022-11-30T23:13:58.966Z,3.80
2022-11-30T23:16:27.222Z,3.80
2022-11-30T23:18:57.220Z,3.80
2022-11-30T23:21:29.960Z,3.80
2022-11-30T23:23:59.536Z,3.70
2022-11-30T23:26:29.310Z,3.80
2022-11-30T23:29:00.728Z,3.70
2022-11-30T23:31:34.027Z,3.70
2022-11-30T23:34:05.377Z,3.70
2022-11-30T23:36:35.360Z,3.60
2022-11-30T23:39:06.184Z,3.60
2022-11-30T23:41:34.549Z,3.60
2022-11-30T23:44:03.003Z,3.60
2022-11-30T23:46:31.309Z,3.60
2022-11-30T23:48:59.307Z,3.50
2022-11-30T23:51:27.807Z,3.50
2022-11-30T23:53:57.375Z,3.50
2022-11-30T23:56:25.884Z,3.50
2022-11-30T23:58:53.915Z,3.40
